sensor_id;sensor_type;location;lat;lon;timestamp;temperature;humidity
22678;DHT22;26259;50.214;18.620;2022-12-07T00:01:20;2.10;99.90
22678;DHT22;26259;50.214;18.620;2022-12-07T00:03:48;2.10;99.90
22678;DHT22;26259;50.214;18.620;2022-12-07T00:06:15;2.10;99.90
22678;DHT22;26259;50.214;18.620;2022-12-07T00:08:41;2.10;99.90
22678;DHT22;26259;50.214;18.620;2022-12-07T00:11:09;2.20;99.90
22678;DHT22;26259;50.214;18.620;2022-12-07T00:13:35;2.20;99.90
22678;DHT22;26259;50.214;18.620;2022-12-07T00:16:03;2.20;99.90
22678;DHT22;26259;50.214;18.620;2022-12-07T00:18:29;2.20;99.90
22678;DHT22;26259;50.214;18.620;2022-12-07T00:21:03;2.20;99.90
22678;DHT22;26259;50.214;18.620;2022-12-07T00:23:30;2.20;99.90
22678;DHT22;26259;50.214;18.620;2022-12-07T00:25:55;2.20;99.90
22678;DHT22;26259;50.214;18.620;2022-12-07T00:28:21;2.20;99.90
22678;DHT22;26259;50.214;18.620;2022-12-07T00:30:47;2.20;99.90
22678;DHT22;26259;50.214;18.620;2022-12-07T00:33:12;2.20;99.90
22678;DHT22;26259;50.214;18.620;2022-12-07T00:35:38;2.20;99.90
22678;DHT22;26259;50.214;18.620;2022-12-07T00:38:03;2.30;99.90
22678;DHT22;26259;50.214;18.620;2022-12-07T00:40:29;2.20;99.90
22678;DHT22;26259;50.214;18.620;2022-12-07T00:42:54;2.20;99.90
22678;DHT22;26259;50.214;18.620;2022-12-07T00:45:20;2.30;99.90
22678;DHT22;26259;50.214;18.620;2022-12-07T00:47:46;2.20;99.90
22678;DHT22;26259;50.214;18.620;2022-12-07T00:50:11;2.20;99.90
22678;DHT22;26259;50.214;18.620;2022-12-07T00:52:37;2.20;99.90
22678;DHT22;26259;50.214;18.620;2022-12-07T00:55:02;2.20;99.90
22678;DHT22;26259;50.214;18.620;2022-12-07T00:57:30;2.10;99.90
22678;DHT22;26259;50.214;18.620;2022-12-07T00:59:55;2.10;99.90
22678;DHT22;26259;50.214;18.620;2022-12-07T01:02:23;2.10;99.90
22678;DHT22;26259;50.214;18.620;2022-12-07T01:04:49;2.10;99.90
22678;DHT22;26259;50.214;18.620;2022-12-07T01:07:14;2.10;99.90
22678;DHT22;26259;50.214;18.620;2022-12-07T01:09:40;2.10;99.90
22678;DHT22;26259;50.214;18.620;2022-12-07T01:12:06;2.10;99.90
22678;DHT22;26259;50.214;18.620;2022-12-07T01:14:31;2.10;99.90
22678;DHT22;26259;50.214;18.620;2022-12-07T01:16:57;2.20;99.90
22678;DHT22;26259;50.214;18.620;2022-12-07T01:19:22;2.20;99.90
22678;DHT22;26259;50.214;18.620;2022-12-07T01:21:48;2.20;99.90
22678;DHT22;26259;50.214;18.620;2022-12-07T01:24:14;2.30;99.90
22678;DHT22;26259;50.214;18.620;2022-12-07T01:26:39;2.30;99.90
22678;DHT22;26259;50.214;18.620;2022-12-07T01:29:05;2.30;99.90
22678;DHT22;26259;50.214;18.620;2022-12-07T01:31:30;2.30;99.90
22678;DHT22;26259;50.214;18.620;2022-12-07T01:33:57;2.30;99.90
22678;DHT22;26259;50.214;18.620;2022-12-07T01:36:29;2.30;99.90
22678;DHT22;26259;50.214;18.620;2022-12-07T01:38:58;2.30;99.90
22678;DHT22;26259;50.214;18.620;2022-12-07T01:41:27;2.30;99.90
22678;DHT22;26259;50.214;18.620;2022-12-07T01:47:03;2.30;99.90
22678;DHT22;26259;50.214;18.620;2022-12-07T01:49:40;2.30;99.90
22678;DHT22;26259;50.214;18.620;2022-12-07T01:52:18;2.30;99.90
22678;DHT22;26259;50.214;18.620;2022-12-07T01:54:47;2.30;99.90
22678;DHT22;26259;50.214;18.620;2022-12-07T01:57:15;2.40;99.90
22678;DHT22;26259;50.214;18.620;2022-12-07T01:59:43;2.30;99.90
22678;DHT22;26259;50.214;18.620;2022-12-07T02:02:16;2.40;99.90
22678;DHT22;26259;50.214;18.620;2022-12-07T02:04:43;2.40;99.90
22678;DHT22;26259;50.214;18.620;2022-12-07T02:07:09;2.50;99.90
22678;DHT22;26259;50.214;18.620;2022-12-07T02:09:35;2.50;99.90
22678;DHT22;26259;50.214;18.620;2022-12-07T02:12:01;2.50;99.90
22678;DHT22;26259;50.214;18.620;2022-12-07T02:14:26;2.40;99.90
22678;DHT22;26259;50.214;18.620;2022-12-07T02:30:30;2.40;99.90
22678;DHT22;26259;50.214;18.620;2022-12-07T02:33:14;2.50;99.90
22678;DHT22;26259;50.214;18.620;2022-12-07T02:35:58;2.50;99.90
22678;DHT22;26259;50.214;18.620;2022-12-07T02:38:31;2.50;99.90
22678;DHT22;26259;50.214;18.620;2022-12-07T02:41:02;2.50;99.90
22678;DHT22;26259;50.214;18.620;2022-12-07T02:43:34;2.50;99.90
22678;DHT22;26259;50.214;18.620;2022-12-07T02:46:16;2.50;99.90
22678;DHT22;26259;50.214;18.620;2022-12-07T02:48:43;2.50;99.90
22678;DHT22;26259;50.214;18.620;2022-12-07T02:51:09;2.50;99.90
22678;DHT22;26259;50.214;18.620;2022-12-07T02:53:40;2.50;99.90
22678;DHT22;26259;50.214;18.620;2022-12-07T02:56:27;2.50;99.90
22678;DHT22;26259;50.214;18.620;2022-12-07T03:13:18;2.40;99.90
22678;DHT22;26259;50.214;18.620;2022-12-07T03:19:09;2.30;99.90
22678;DHT22;26259;50.214;18.620;2022-12-07T03:21:43;2.30;99.90
22678;DHT22;26259;50.214;18.620;2022-12-07T03:24:17;2.30;99.90
22678;DHT22;26259;50.214;18.620;2022-12-07T03:26:49;2.20;99.90
22678;DHT22;26259;50.214;18.620;2022-12-07T03:29:21;2.20;99.90
22678;DHT22;26259;50.214;18.620;2022-12-07T03:31:53;2.20;99.90
22678;DHT22;26259;50.214;18.620;2022-12-07T03:34:34;2.20;99.90
22678;DHT22;26259;50.214;18.620;2022-12-07T03:37:08;2.10;99.90
22678;DHT22;26259;50.214;18.620;2022-12-07T03:39:41;2.20;99.90
22678;DHT22;26259;50.214;18.620;2022-12-07T03:42:09;2.20;99.90
22678;DHT22;26259;50.214;18.620;2022-12-07T03:44:36;2.20;99.90
22678;DHT22;26259;50.214;18.620;2022-12-07T03:50:01;2.10;99.90
22678;DHT22;26259;50.214;18.620;2022-12-07T03:52:42;2.10;99.90
22678;DHT22;26259;50.214;18.620;2022-12-07T03:55:25;2.00;99.90
22678;DHT22;26259;50.214;18.620;2022-12-07T03:57:55;2.00;99.90
22678;DHT22;26259;50.214;18.620;2022-12-07T04:00:21;2.00;99.90
22678;DHT22;26259;50.214;18.620;2022-12-07T04:02:47;2.00;99.90
22678;DHT22;26259;50.214;18.620;2022-12-07T04:05:16;2.10;99.90
22678;DHT22;26259;50.214;18.620;2022-12-07T04:07:41;2.10;99.90
22678;DHT22;26259;50.214;18.620;2022-12-07T04:10:08;2.00;99.90
22678;DHT22;26259;50.214;18.620;2022-12-07T04:12:33;2.00;99.90
22678;DHT22;26259;50.214;18.620;2022-12-07T04:14:59;2.00;99.90
22678;DHT22;26259;50.214;18.620;2022-12-07T04:17:25;2.00;99.90
22678;DHT22;26259;50.214;18.620;2022-12-07T04:19:50;2.00;99.90
22678;DHT22;26259;50.214;18.620;2022-12-07T04:22:16;2.00;99.90
22678;DHT22;26259;50.214;18.620;2022-12-07T04:24:41;2.00;99.90
22678;DHT22;26259;50.214;18.620;2022-12-07T04:27:07;2.00;99.90
22678;DHT22;26259;50.214;18.620;2022-12-07T04:29:33;2.00;99.90
22678;DHT22;26259;50.214;18.620;2022-12-07T04:31:58;2.00;99.90
22678;DHT22;26259;50.214;18.620;2022-12-07T04:34:24;1.90;99.90
22678;DHT22;26259;50.214;18.620;2022-12-07T04:36:49;1.90;99.90
22678;DHT22;26259;50.214;18.620;2022-12-07T04:39:21;1.90;99.90
22678;DHT22;26259;50.214;18.620;2022-12-07T04:41:47;1.90;99.90
22678;DHT22;26259;50.214;18.620;2022-12-07T04:44:13;1.90;99.90
22678;DHT22;26259;50.214;18.620;2022-12-07T04:46:40;1.90;99.90
22678;DHT22;26259;50.214;18.620;2022-12-07T04:49:06;1.90;99.90
22678;DHT22;26259;50.214;18.620;2022-12-07T04:51:32;1.90;99.90
22678;DHT22;26259;50.214;18.620;2022-12-07T04:53:58;2.00;99.90
22678;DHT22;26259;50.214;18.620;2022-12-07T04:56:24;2.00;99.90
22678;DHT22;26259;50.214;18.620;2022-12-07T04:58:51;2.00;99.90
22678;DHT22;26259;50.214;18.620;2022-12-07T05:01:17;1.90;99.90
22678;DHT22;26259;50.214;18.620;2022-12-07T05:03:43;1.90;99.90
22678;DHT22;26259;50.214;18.620;2022-12-07T05:06:09;1.90;99.90
22678;DHT22;26259;50.214;18.620;2022-12-07T05:08:35;1.90;99.90
22678;DHT22;26259;50.214;18.620;2022-12-07T05:11:03;1.90;99.90
22678;DHT22;26259;50.214;18.620;2022-12-07T05:13:28;1.90;99.90
22678;DHT22;26259;50.214;18.620;2022-12-07T05:15:54;1.90;99.90
22678;DHT22;26259;50.214;18.620;2022-12-07T05:18:20;1.90;99.90
22678;DHT22;26259;50.214;18.620;2022-12-07T05:20:46;1.90;99.90
22678;DHT22;26259;50.214;18.620;2022-12-07T05:23:11;2.00;99.90
22678;DHT22;26259;50.214;18.620;2022-12-07T05:25:38;1.90;99.90
22678;DHT22;26259;50.214;18.620;2022-12-07T05:28:04;1.90;99.90
22678;DHT22;26259;50.214;18.620;2022-12-07T05:30:30;1.90;99.90
22678;DHT22;26259;50.214;18.620;2022-12-07T05:32:55;1.90;99.90
22678;DHT22;26259;50.214;18.620;2022-12-07T05:35:21;2.00;99.90
22678;DHT22;26259;50.214;18.620;2022-12-07T05:37:47;1.90;99.90
22678;DHT22;26259;50.214;18.620;2022-12-07T05:40:13;2.00;99.90
22678;DHT22;26259;50.214;18.620;2022-12-07T05:42:40;2.00;99.90
22678;DHT22;26259;50.214;18.620;2022-12-07T05:45:06;1.90;99.90
22678;DHT22;26259;50.214;18.620;2022-12-07T05:47:32;2.00;99.90
22678;DHT22;26259;50.214;18.620;2022-12-07T05:49:57;2.00;99.90
22678;DHT22;26259;50.214;18.620;2022-12-07T05:52:23;2.00;99.90
22678;DHT22;26259;50.214;18.620;2022-12-07T05:54:49;2.00;99.90
22678;DHT22;26259;50.214;18.620;2022-12-07T05:57:15;2.00;99.90
22678;DHT22;26259;50.214;18.620;2022-12-07T05:59:41;2.00;99.90
22678;DHT22;26259;50.214;18.620;2022-12-07T06:02:09;2.00;99.90
22678;DHT22;26259;50.214;18.620;2022-12-07T06:04:37;2.00;99.90
22678;DHT22;26259;50.214;18.620;2022-12-07T06:07:04;2.00;99.90
22678;DHT22;26259;50.214;18.620;2022-12-07T06:09:31;2.00;99.90
22678;DHT22;26259;50.214;18.620;2022-12-07T06:11:57;2.00;99.90
22678;DHT22;26259;50.214;18.620;2022-12-07T06:14:42;2.00;99.90
22678;DHT22;26259;50.214;18.620;2022-12-07T06:17:07;2.00;99.90
22678;DHT22;26259;50.214;18.620;2022-12-07T06:19:33;1.90;99.90
22678;DHT22;26259;50.214;18.620;2022-12-07T06:22:00;1.90;99.90
22678;DHT22;26259;50.214;18.620;2022-12-07T06:24:26;1.90;99.90
22678;DHT22;26259;50.214;18.620;2022-12-07T06:26:52;1.90;99.90
22678;DHT22;26259;50.214;18.620;2022-12-07T06:29:18;1.90;99.90
22678;DHT22;26259;50.214;18.620;2022-12-07T06:31:44;1.90;99.90
22678;DHT22;26259;50.214;18.620;2022-12-07T06:34:12;2.00;99.90
22678;DHT22;26259;50.214;18.620;2022-12-07T06:36:38;2.00;99.90
22678;DHT22;26259;50.214;18.620;2022-12-07T06:39:05;2.00;99.90
22678;DHT22;26259;50.214;18.620;2022-12-07T06:41:31;2.00;99.90
22678;DHT22;26259;50.214;18.620;2022-12-07T06:43:56;2.00;99.90
22678;DHT22;26259;50.214;18.620;2022-12-07T06:46:23;2.00;99.90
22678;DHT22;26259;50.214;18.620;2022-12-07T06:48:48;2.00;99.90
22678;DHT22;26259;50.214;18.620;2022-12-07T06:51:14;2.10;99.90
22678;DHT22;26259;50.214;18.620;2022-12-07T06:53:40;2.00;99.90
22678;DHT22;26259;50.214;18.620;2022-12-07T06:56:06;2.10;99.90
22678;DHT22;26259;50.214;18.620;2022-12-07T06:58:31;2.10;99.90
22678;DHT22;26259;50.214;18.620;2022-12-07T07:00:57;2.00;99.90
22678;DHT22;26259;50.214;18.620;2022-12-07T07:03:24;2.10;99.90
22678;DHT22;26259;50.214;18.620;2022-12-07T07:05:49;2.10;99.90
22678;DHT22;26259;50.214;18.620;2022-12-07T07:08:15;2.10;99.90
22678;DHT22;26259;50.214;18.620;2022-12-07T07:10:41;2.10;99.90
22678;DHT22;26259;50.214;18.620;2022-12-07T07:13:07;2.10;99.90
22678;DHT22;26259;50.214;18.620;2022-12-07T07:15:33;2.10;99.90
22678;DHT22;26259;50.214;18.620;2022-12-07T07:18:00;2.20;99.90
22678;DHT22;26259;50.214;18.620;2022-12-07T07:20:25;2.20;99.90
22678;DHT22;26259;50.214;18.620;2022-12-07T07:22:54;2.20;99.90
22678;DHT22;26259;50.214;18.620;2022-12-07T07:25:19;2.20;99.90
22678;DHT22;26259;50.214;18.620;2022-12-07T07:27:45;2.20;99.90
22678;DHT22;26259;50.214;18.620;2022-12-07T07:30:11;2.30;99.90
22678;DHT22;26259;50.214;18.620;2022-12-07T07:32:37;2.20;99.90
22678;DHT22;26259;50.214;18.620;2022-12-07T07:35:03;2.30;99.90
22678;DHT22;26259;50.214;18.620;2022-12-07T07:37:28;2.30;99.90
22678;DHT22;26259;50.214;18.620;2022-12-07T07:39:54;2.30;99.90
22678;DHT22;26259;50.214;18.620;2022-12-07T07:42:20;2.30;99.90
22678;DHT22;26259;50.214;18.620;2022-12-07T07:44:45;2.40;99.90
22678;DHT22;26259;50.214;18.620;2022-12-07T07:47:11;2.40;99.90
22678;DHT22;26259;50.214;18.620;2022-12-07T07:49:37;2.50;99.90
22678;DHT22;26259;50.214;18.620;2022-12-07T07:52:02;2.50;99.90
22678;DHT22;26259;50.214;18.620;2022-12-07T07:54:28;2.60;99.90
22678;DHT22;26259;50.214;18.620;2022-12-07T07:56:54;2.60;99.90
22678;DHT22;26259;50.214;18.620;2022-12-07T07:59:19;2.60;99.90
22678;DHT22;26259;50.214;18.620;2022-12-07T08:01:45;2.70;99.90
22678;DHT22;26259;50.214;18.620;2022-12-07T08:04:10;2.70;99.90
22678;DHT22;26259;50.214;18.620;2022-12-07T08:06:36;2.60;99.90
22678;DHT22;26259;50.214;18.620;2022-12-07T08:09:02;2.60;99.90
22678;DHT22;26259;50.214;18.620;2022-12-07T08:11:28;2.60;99.90
22678;DHT22;26259;50.214;18.620;2022-12-07T08:13:54;2.70;99.90
22678;DHT22;26259;50.214;18.620;2022-12-07T08:16:20;2.70;99.90
22678;DHT22;26259;50.214;18.620;2022-12-07T08:18:45;2.70;99.90
22678;DHT22;26259;50.214;18.620;2022-12-07T08:21:13;2.70;99.90
22678;DHT22;26259;50.214;18.620;2022-12-07T08:23:39;2.80;99.90
22678;DHT22;26259;50.214;18.620;2022-12-07T08:26:08;2.80;99.90
22678;DHT22;26259;50.214;18.620;2022-12-07T08:28:33;2.80;99.90
22678;DHT22;26259;50.214;18.620;2022-12-07T08:31:00;2.90;99.90
22678;DHT22;26259;50.214;18.620;2022-12-07T08:33:26;2.90;99.90
22678;DHT22;26259;50.214;18.620;2022-12-07T08:35:52;3.00;99.90
22678;DHT22;26259;50.214;18.620;2022-12-07T08:38:17;3.10;99.90
22678;DHT22;26259;50.214;18.620;2022-12-07T08:40:43;3.10;99.90
22678;DHT22;26259;50.214;18.620;2022-12-07T08:43:08;3.10;99.90
22678;DHT22;26259;50.214;18.620;2022-12-07T08:45:34;3.20;99.90
22678;DHT22;26259;50.214;18.620;2022-12-07T08:48:10;3.20;99.90
22678;DHT22;26259;50.214;18.620;2022-12-07T08:50:38;3.30;99.90
22678;DHT22;26259;50.214;18.620;2022-12-07T08:53:04;3.20;99.90
22678;DHT22;26259;50.214;18.620;2022-12-07T08:55:30;3.20;99.90
22678;DHT22;26259;50.214;18.620;2022-12-07T08:57:58;3.20;99.90
22678;DHT22;26259;50.214;18.620;2022-12-07T09:00:24;3.20;99.90
22678;DHT22;26259;50.214;18.620;2022-12-07T09:02:49;3.30;99.90
22678;DHT22;26259;50.214;18.620;2022-12-07T09:05:15;3.30;99.90
22678;DHT22;26259;50.214;18.620;2022-12-07T09:07:43;3.30;99.90
22678;DHT22;26259;50.214;18.620;2022-12-07T09:10:09;3.30;99.90
22678;DHT22;26259;50.214;18.620;2022-12-07T09:12:35;3.30;99.90
22678;DHT22;26259;50.214;18.620;2022-12-07T09:15:01;3.30;99.90
22678;DHT22;26259;50.214;18.620;2022-12-07T09:17:26;3.30;99.90
22678;DHT22;26259;50.214;18.620;2022-12-07T09:19:52;3.30;99.90
22678;DHT22;26259;50.214;18.620;2022-12-07T09:22:18;3.40;99.90
22678;DHT22;26259;50.214;18.620;2022-12-07T09:24:43;3.40;99.90
22678;DHT22;26259;50.214;18.620;2022-12-07T09:27:11;3.40;99.90
22678;DHT22;26259;50.214;18.620;2022-12-07T09:29:37;3.40;99.90
22678;DHT22;26259;50.214;18.620;2022-12-07T09:32:02;3.50;99.90
22678;DHT22;26259;50.214;18.620;2022-12-07T09:34:30;3.60;99.90
22678;DHT22;26259;50.214;18.620;2022-12-07T09:36:57;3.60;99.90
22678;DHT22;26259;50.214;18.620;2022-12-07T09:39:22;3.70;99.90
22678;DHT22;26259;50.214;18.620;2022-12-07T09:41:48;3.70;99.90
22678;DHT22;26259;50.214;18.620;2022-12-07T09:44:22;3.80;99.90
22678;DHT22;26259;50.214;18.620;2022-12-07T09:46:49;3.80;99.90
22678;DHT22;26259;50.214;18.620;2022-12-07T09:49:20;3.70;99.90
22678;DHT22;26259;50.214;18.620;2022-12-07T09:51:47;3.80;99.90
22678;DHT22;26259;50.214;18.620;2022-12-07T09:54:15;3.90;99.90
22678;DHT22;26259;50.214;18.620;2022-12-07T09:56:42;3.90;99.90
22678;DHT22;26259;50.214;18.620;2022-12-07T09:59:17;3.90;99.90
22678;DHT22;26259;50.214;18.620;2022-12-07T10:01:47;4.00;99.90
22678;DHT22;26259;50.214;18.620;2022-12-07T10:04:19;4.00;99.90
22678;DHT22;26259;50.214;18.620;2022-12-07T10:06:46;4.10;99.90
22678;DHT22;26259;50.214;18.620;2022-12-07T10:09:15;4.20;99.90
22678;DHT22;26259;50.214;18.620;2022-12-07T10:14:31;4.20;99.90
22678;DHT22;26259;50.214;18.620;2022-12-07T10:16:57;4.30;99.90
22678;DHT22;26259;50.214;18.620;2022-12-07T10:19:33;4.30;99.90
22678;DHT22;26259;50.214;18.620;2022-12-07T10:22:14;4.40;99.90
22678;DHT22;26259;50.214;18.620;2022-12-07T10:24:41;4.50;99.90
22678;DHT22;26259;50.214;18.620;2022-12-07T10:27:26;4.50;99.90
22678;DHT22;26259;50.214;18.620;2022-12-07T10:29:52;4.60;99.90
22678;DHT22;26259;50.214;18.620;2022-12-07T10:34:44;4.60;99.90
22678;DHT22;26259;50.214;18.620;2022-12-07T10:42:19;4.60;99.90
22678;DHT22;26259;50.214;18.620;2022-12-07T10:44:44;4.50;99.90
22678;DHT22;26259;50.214;18.620;2022-12-07T10:47:22;4.50;99.90
22678;DHT22;26259;50.214;18.620;2022-12-07T10:57:59;4.30;99.90
22678;DHT22;26259;50.214;18.620;2022-12-07T11:00:31;4.30;99.90
22678;DHT22;26259;50.214;18.620;2022-12-07T11:03:21;4.30;99.90
22678;DHT22;26259;50.214;18.620;2022-12-07T11:06:16;4.30;99.90
22678;DHT22;26259;50.214;18.620;2022-12-07T11:11:35;4.30;99.90
22678;DHT22;26259;50.214;18.620;2022-12-07T11:20:16;4.30;99.90
22678;DHT22;26259;50.214;18.620;2022-12-07T11:23:18;4.20;99.90
22678;DHT22;26259;50.214;18.620;2022-12-07T11:25:56;4.30;99.90
22678;DHT22;26259;50.214;18.620;2022-12-07T11:37:27;4.40;99.90
22678;DHT22;26259;50.214;18.620;2022-12-07T11:40:05;4.40;99.90
22678;DHT22;26259;50.214;18.620;2022-12-07T11:42:38;4.40;99.90
22678;DHT22;26259;50.214;18.620;2022-12-07T11:46:06;4.50;99.90
22678;DHT22;26259;50.214;18.620;2022-12-07T11:48:34;4.60;99.90
22678;DHT22;26259;50.214;18.620;2022-12-07T11:51:02;4.60;99.90
22678;DHT22;26259;50.214;18.620;2022-12-07T11:53:37;4.60;99.90
22678;DHT22;26259;50.214;18.620;2022-12-07T12:01:39;4.70;99.90
22678;DHT22;26259;50.214;18.620;2022-12-07T12:06:40;4.90;99.90
22678;DHT22;26259;50.214;18.620;2022-12-07T12:17:34;5.30;99.90
22678;DHT22;26259;50.214;18.620;2022-12-07T12:23:07;5.30;99.90
22678;DHT22;26259;50.214;18.620;2022-12-07T12:25:52;5.30;99.90
22678;DHT22;26259;50.214;18.620;2022-12-07T12:33:50;5.10;99.90
22678;DHT22;26259;50.214;18.620;2022-12-07T12:38:48;5.00;99.90
22678;DHT22;26259;50.214;18.620;2022-12-07T12:50:19;4.90;99.90
22678;DHT22;26259;50.214;18.620;2022-12-07T12:55:18;4.90;99.90
22678;DHT22;26259;50.214;18.620;2022-12-07T12:57:48;4.80;99.90
22678;DHT22;26259;50.214;18.620;2022-12-07T13:00:32;4.80;99.90
22678;DHT22;26259;50.214;18.620;2022-12-07T13:02:59;4.70;99.90
22678;DHT22;26259;50.214;18.620;2022-12-07T13:05:28;4.80;99.90
22678;DHT22;26259;50.214;18.620;2022-12-07T13:08:03;4.70;99.90
22678;DHT22;26259;50.214;18.620;2022-12-07T13:10:39;4.70;99.90
22678;DHT22;26259;50.214;18.620;2022-12-07T13:18:42;4.60;99.90
22678;DHT22;26259;50.214;18.620;2022-12-07T13:31:52;4.50;99.90
22678;DHT22;26259;50.214;18.620;2022-12-07T13:34:40;4.50;99.90
22678;DHT22;26259;50.214;18.620;2022-12-07T13:37:20;4.40;99.90
22678;DHT22;26259;50.214;18.620;2022-12-07T13:39:52;4.40;99.90
22678;DHT22;26259;50.214;18.620;2022-12-07T13:42:33;4.40;99.90
22678;DHT22;26259;50.214;18.620;2022-12-07T13:47:49;4.40;99.90
22678;DHT22;26259;50.214;18.620;2022-12-07T13:50:28;4.30;99.90
22678;DHT22;26259;50.214;18.620;2022-12-07T13:52:56;4.30;99.90
22678;DHT22;26259;50.214;18.620;2022-12-07T13:55:22;4.30;99.90
22678;DHT22;26259;50.214;18.620;2022-12-07T13:57:51;4.30;99.90
22678;DHT22;26259;50.214;18.620;2022-12-07T14:00:22;4.20;99.90
22678;DHT22;26259;50.214;18.620;2022-12-07T14:05:26;4.20;99.90
22678;DHT22;26259;50.214;18.620;2022-12-07T14:10:36;4.20;99.90
22678;DHT22;26259;50.214;18.620;2022-12-07T14:15:58;4.10;99.90
22678;DHT22;26259;50.214;18.620;2022-12-07T14:18:39;4.10;99.90
22678;DHT22;26259;50.214;18.620;2022-12-07T14:21:17;4.10;99.90
22678;DHT22;26259;50.214;18.620;2022-12-07T14:23:45;4.10;99.90
22678;DHT22;26259;50.214;18.620;2022-12-07T14:26:19;4.10;99.90
22678;DHT22;26259;50.214;18.620;2022-12-07T14:28:45;4.10;99.90
22678;DHT22;26259;50.214;18.620;2022-12-07T14:31:17;4.00;99.90
22678;DHT22;26259;50.214;18.620;2022-12-07T14:33:43;4.10;99.90
22678;DHT22;26259;50.214;18.620;2022-12-07T14:36:11;4.00;99.90
22678;DHT22;26259;50.214;18.620;2022-12-07T14:38:37;4.00;99.90
22678;DHT22;26259;50.214;18.620;2022-12-07T14:41:04;4.00;99.90
22678;DHT22;26259;50.214;18.620;2022-12-07T14:43:49;4.00;99.90
22678;DHT22;26259;50.214;18.620;2022-12-07T14:46:15;4.00;99.90
22678;DHT22;26259;50.214;18.620;2022-12-07T14:48:40;4.00;99.90
22678;DHT22;26259;50.214;18.620;2022-12-07T14:51:09;3.90;99.90
22678;DHT22;26259;50.214;18.620;2022-12-07T14:53:40;3.90;99.90
22678;DHT22;26259;50.214;18.620;2022-12-07T14:56:07;3.90;99.90
22678;DHT22;26259;50.214;18.620;2022-12-07T14:58:33;3.90;99.90
22678;DHT22;26259;50.214;18.620;2022-12-07T15:00:59;3.90;99.90
22678;DHT22;26259;50.214;18.620;2022-12-07T15:03:25;3.90;99.90
22678;DHT22;26259;50.214;18.620;2022-12-07T15:05:51;3.80;99.90
22678;DHT22;26259;50.214;18.620;2022-12-07T15:08:16;3.80;99.90
22678;DHT22;26259;50.214;18.620;2022-12-07T15:10:43;3.90;99.90
22678;DHT22;26259;50.214;18.620;2022-12-07T15:13:08;3.80;99.90
22678;DHT22;26259;50.214;18.620;2022-12-07T15:15:54;3.80;99.90
22678;DHT22;26259;50.214;18.620;2022-12-07T15:18:21;3.80;99.90
22678;DHT22;26259;50.214;18.620;2022-12-07T15:20:47;3.80;99.90
22678;DHT22;26259;50.214;18.620;2022-12-07T15:23:13;3.80;99.90
22678;DHT22;26259;50.214;18.620;2022-12-07T15:25:43;3.70;99.90
22678;DHT22;26259;50.214;18.620;2022-12-07T15:28:09;3.70;99.90
22678;DHT22;26259;50.214;18.620;2022-12-07T15:30:37;3.70;99.90
22678;DHT22;26259;50.214;18.620;2022-12-07T15:33:03;3.70;99.90
22678;DHT22;26259;50.214;18.620;2022-12-07T15:35:29;3.60;99.90
22678;DHT22;26259;50.214;18.620;2022-12-07T15:37:54;3.60;99.90
22678;DHT22;26259;50.214;18.620;2022-12-07T15:40:20;3.50;99.90
22678;DHT22;26259;50.214;18.620;2022-12-07T15:42:46;3.40;99.90
22678;DHT22;26259;50.214;18.620;2022-12-07T15:45:12;3.40;99.90
22678;DHT22;26259;50.214;18.620;2022-12-07T15:47:41;3.30;99.90
22678;DHT22;26259;50.214;18.620;2022-12-07T15:50:09;3.30;99.90
22678;DHT22;26259;50.214;18.620;2022-12-07T15:52:35;3.20;99.90
22678;DHT22;26259;50.214;18.620;2022-12-07T15:55:01;3.10;99.90
22678;DHT22;26259;50.214;18.620;2022-12-07T15:57:32;3.00;99.90
22678;DHT22;26259;50.214;18.620;2022-12-07T15:59:58;3.00;99.90
22678;DHT22;26259;50.214;18.620;2022-12-07T16:02:25;3.00;99.90
22678;DHT22;26259;50.214;18.620;2022-12-07T16:04:51;2.90;99.90
22678;DHT22;26259;50.214;18.620;2022-12-07T16:07:17;2.90;99.90
22678;DHT22;26259;50.214;18.620;2022-12-07T16:09:44;2.90;99.90
22678;DHT22;26259;50.214;18.620;2022-12-07T16:12:11;2.90;99.90
22678;DHT22;26259;50.214;18.620;2022-12-07T16:14:38;2.90;99.90
22678;DHT22;26259;50.214;18.620;2022-12-07T16:17:04;2.80;99.90
22678;DHT22;26259;50.214;18.620;2022-12-07T16:19:30;2.80;99.90
22678;DHT22;26259;50.214;18.620;2022-12-07T16:21:56;2.70;99.90
22678;DHT22;26259;50.214;18.620;2022-12-07T16:24:22;2.70;99.90
22678;DHT22;26259;50.214;18.620;2022-12-07T16:26:48;2.60;99.90
22678;DHT22;26259;50.214;18.620;2022-12-07T16:29:15;2.60;99.90
22678;DHT22;26259;50.214;18.620;2022-12-07T16:31:41;2.60;99.90
22678;DHT22;26259;50.214;18.620;2022-12-07T16:34:07;2.60;99.90
22678;DHT22;26259;50.214;18.620;2022-12-07T16:36:33;2.70;99.90
22678;DHT22;26259;50.214;18.620;2022-12-07T16:39:00;2.70;99.90
22678;DHT22;26259;50.214;18.620;2022-12-07T16:41:26;2.70;99.90
22678;DHT22;26259;50.214;18.620;2022-12-07T16:43:51;2.70;99.90
22678;DHT22;26259;50.214;18.620;2022-12-07T16:46:17;2.80;99.90
22678;DHT22;26259;50.214;18.620;2022-12-07T16:48:43;2.80;99.90
22678;DHT22;26259;50.214;18.620;2022-12-07T16:51:11;2.90;99.90
22678;DHT22;26259;50.214;18.620;2022-12-07T16:53:38;2.90;99.90
22678;DHT22;26259;50.214;18.620;2022-12-07T16:56:05;2.90;99.90
22678;DHT22;26259;50.214;18.620;2022-12-07T16:58:34;2.90;99.90
22678;DHT22;26259;50.214;18.620;2022-12-07T17:01:07;3.00;99.90
22678;DHT22;26259;50.214;18.620;2022-12-07T17:03:34;3.00;99.90
22678;DHT22;26259;50.214;18.620;2022-12-07T17:05:59;3.00;99.90
22678;DHT22;26259;50.214;18.620;2022-12-07T17:08:25;3.00;99.90
22678;DHT22;26259;50.214;18.620;2022-12-07T17:10:50;3.00;99.90
22678;DHT22;26259;50.214;18.620;2022-12-07T17:13:16;3.10;99.90
22678;DHT22;26259;50.214;18.620;2022-12-07T17:16:05;3.10;99.90
22678;DHT22;26259;50.214;18.620;2022-12-07T17:18:35;3.10;99.90
22678;DHT22;26259;50.214;18.620;2022-12-07T17:21:03;3.10;99.90
22678;DHT22;26259;50.214;18.620;2022-12-07T17:23:29;3.10;99.90
22678;DHT22;26259;50.214;18.620;2022-12-07T17:25:55;3.20;99.90
22678;DHT22;26259;50.214;18.620;2022-12-07T17:28:21;3.20;99.90
22678;DHT22;26259;50.214;18.620;2022-12-07T17:30:46;3.20;99.90
22678;DHT22;26259;50.214;18.620;2022-12-07T17:33:12;3.10;99.90
22678;DHT22;26259;50.214;18.620;2022-12-07T17:35:38;3.10;99.90
22678;DHT22;26259;50.214;18.620;2022-12-07T17:38:03;3.10;99.90
22678;DHT22;26259;50.214;18.620;2022-12-07T17:40:29;3.10;99.90
22678;DHT22;26259;50.214;18.620;2022-12-07T17:42:54;3.00;99.90
22678;DHT22;26259;50.214;18.620;2022-12-07T17:45:20;3.00;99.90
22678;DHT22;26259;50.214;18.620;2022-12-07T17:47:46;3.00;99.90
22678;DHT22;26259;50.214;18.620;2022-12-07T17:50:11;3.10;99.90
22678;DHT22;26259;50.214;18.620;2022-12-07T17:52:38;3.10;99.90
22678;DHT22;26259;50.214;18.620;2022-12-07T17:55:22;3.10;99.90
22678;DHT22;26259;50.214;18.620;2022-12-07T17:57:48;3.10;99.90